sensor_id;sensor_type;location;lat;lon;timestamp;P1;durP1;ratioP1;P2;durP2;ratioP2
6638;SDS011;3355;52.882;8.430;2023-07-20T00:01:26;2.30;;;1.37;;
6638;SDS011;3355;52.882;8.430;2023-07-20T00:03:53;1.83;;;1.30;;
6638;SDS011;3355;52.882;8.430;2023-07-20T00:06:22;1.50;;;1.23;;
6638;SDS011;3355;52.882;8.430;2023-07-20T00:08:49;2.50;;;1.20;;
6638;SDS011;3355;52.882;8.430;2023-07-20T00:11:16;2.00;;;1.30;;
6638;SDS011;3355;52.882;8.430;2023-07-20T00:13:45;1.90;;;1.37;;
6638;SDS011;3355;52.882;8.430;2023-07-20T00:16:12;2.00;;;1.43;;
6638;SDS011;3355;52.882;8.430;2023-07-20T00:18:39;2.90;;;1.40;;
6638;SDS011;3355;52.882;8.430;2023-07-20T00:21:05;3.17;;;1.80;;
6638;SDS011;3355;52.882;8.430;2023-07-20T00:23:32;3.80;;;2.27;;
6638;SDS011;3355;52.882;8.430;2023-07-20T00:25:59;3.50;;;1.70;;
6638;SDS011;3355;52.882;8.430;2023-07-20T00:28:25;2.40;;;1.40;;
6638;SDS011;3355;52.882;8.430;2023-07-20T00:30:54;1.90;;;1.70;;
6638;SDS011;3355;52.882;8.430;2023-07-20T00:33:21;2.13;;;1.60;;
6638;SDS011;3355;52.882;8.430;2023-07-20T00:35:47;3.40;;;1.50;;
6638;SDS011;3355;52.882;8.430;2023-07-20T00:38:14;1.90;;;1.40;;
6638;SDS011;3355;52.882;8.430;2023-07-20T00:40:42;2.63;;;1.90;;
6638;SDS011;3355;52.882;8.430;2023-07-20T00:43:10;2.30;;;1.80;;
6638;SDS011;3355;52.882;8.430;2023-07-20T00:45:37;1.83;;;1.50;;
6638;SDS011;3355;52.882;8.430;2023-07-20T00:48:06;2.90;;;1.60;;
6638;SDS011;3355;52.882;8.430;2023-07-20T00:50:33;2.37;;;1.73;;
6638;SDS011;3355;52.882;8.430;2023-07-20T00:53:00;2.23;;;1.80;;
6638;SDS011;3355;52.882;8.430;2023-07-20T00:55:30;3.07;;;2.10;;
6638;SDS011;3355;52.882;8.430;2023-07-20T00:57:57;2.83;;;2.20;;
6638;SDS011;3355;52.882;8.430;2023-07-20T01:00:24;3.60;;;1.87;;
6638;SDS011;3355;52.882;8.430;2023-07-20T01:02:50;3.50;;;2.10;;
6638;SDS011;3355;52.882;8.430;2023-07-20T01:05:19;2.70;;;2.13;;
6638;SDS011;3355;52.882;8.430;2023-07-20T01:07:47;3.13;;;2.10;;
6638;SDS011;3355;52.882;8.430;2023-07-20T01:10:21;3.93;;;1.87;;
6638;SDS011;3355;52.882;8.430;2023-07-20T01:12:52;2.53;;;2.00;;
6638;SDS011;3355;52.882;8.430;2023-07-20T01:15:19;2.33;;;1.93;;
6638;SDS011;3355;52.882;8.430;2023-07-20T01:17:45;2.23;;;1.63;;
6638;SDS011;3355;52.882;8.430;2023-07-20T01:20:13;2.97;;;2.10;;
6638;SDS011;3355;52.882;8.430;2023-07-20T01:22:47;4.80;;;2.40;;
6638;SDS011;3355;52.882;8.430;2023-07-20T01:25:28;1.97;;;1.70;;
6638;SDS011;3355;52.882;8.430;2023-07-20T01:28:12;2.73;;;2.17;;
6638;SDS011;3355;52.882;8.430;2023-07-20T01:30:59;2.40;;;2.10;;
6638;SDS011;3355;52.882;8.430;2023-07-20T01:33:38;3.50;;;2.10;;
6638;SDS011;3355;52.882;8.430;2023-07-20T01:36:07;3.30;;;2.40;;
6638;SDS011;3355;52.882;8.430;2023-07-20T01:38:35;2.90;;;2.63;;
6638;SDS011;3355;52.882;8.430;2023-07-20T01:41:02;3.20;;;2.33;;
6638;SDS011;3355;52.882;8.430;2023-07-20T01:43:29;3.37;;;2.53;;
6638;SDS011;3355;52.882;8.430;2023-07-20T01:45:56;2.50;;;2.23;;
6638;SDS011;3355;52.882;8.430;2023-07-20T01:48:24;3.80;;;2.97;;
6638;SDS011;3355;52.882;8.430;2023-07-20T01:50:51;2.63;;;2.40;;
6638;SDS011;3355;52.882;8.430;2023-07-20T01:53:19;5.17;;;2.90;;
6638;SDS011;3355;52.882;8.430;2023-07-20T01:55:46;2.97;;;2.40;;
6638;SDS011;3355;52.882;8.430;2023-07-20T01:58:13;4.07;;;2.80;;
6638;SDS011;3355;52.882;8.430;2023-07-20T02:00:40;3.37;;;3.07;;
6638;SDS011;3355;52.882;8.430;2023-07-20T02:03:07;3.37;;;2.53;;
6638;SDS011;3355;52.882;8.430;2023-07-20T02:05:35;3.30;;;2.70;;
6638;SDS011;3355;52.882;8.430;2023-07-20T02:08:02;5.07;;;3.03;;
6638;SDS011;3355;52.882;8.430;2023-07-20T02:10:30;3.70;;;3.37;;
6638;SDS011;3355;52.882;8.430;2023-07-20T02:12:57;4.10;;;3.70;;
6638;SDS011;3355;52.882;8.430;2023-07-20T02:15:24;3.07;;;2.47;;
6638;SDS011;3355;52.882;8.430;2023-07-20T02:17:52;4.07;;;3.67;;
6638;SDS011;3355;52.882;8.430;2023-07-20T02:20:19;4.63;;;2.90;;
6638;SDS011;3355;52.882;8.430;2023-07-20T02:22:47;3.73;;;3.30;;
6638;SDS011;3355;52.882;8.430;2023-07-20T02:25:14;3.90;;;2.57;;
6638;SDS011;3355;52.882;8.430;2023-07-20T02:27:41;3.93;;;3.10;;
6638;SDS011;3355;52.882;8.430;2023-07-20T02:30:08;5.47;;;3.07;;
6638;SDS011;3355;52.882;8.430;2023-07-20T02:32:36;4.00;;;3.10;;
6638;SDS011;3355;52.882;8.430;2023-07-20T02:35:03;3.83;;;3.27;;
6638;SDS011;3355;52.882;8.430;2023-07-20T02:37:31;3.13;;;2.83;;
6638;SDS011;3355;52.882;8.430;2023-07-20T02:39:59;3.70;;;2.80;;
6638;SDS011;3355;52.882;8.430;2023-07-20T02:42:26;3.20;;;2.80;;
6638;SDS011;3355;52.882;8.430;2023-07-20T02:44:53;4.83;;;2.80;;
6638;SDS011;3355;52.882;8.430;2023-07-20T02:47:20;3.63;;;2.73;;
6638;SDS011;3355;52.882;8.430;2023-07-20T02:49:46;3.20;;;2.90;;
6638;SDS011;3355;52.882;8.430;2023-07-20T02:52:13;3.40;;;2.87;;
6638;SDS011;3355;52.882;8.430;2023-07-20T02:54:40;3.37;;;2.57;;
6638;SDS011;3355;52.882;8.430;2023-07-20T02:57:08;4.30;;;2.70;;
6638;SDS011;3355;52.882;8.430;2023-07-20T02:59:35;3.20;;;2.90;;
6638;SDS011;3355;52.882;8.430;2023-07-20T03:02:02;3.20;;;2.40;;
6638;SDS011;3355;52.882;8.430;2023-07-20T03:04:28;3.10;;;2.80;;
6638;SDS011;3355;52.882;8.430;2023-07-20T03:06:55;2.97;;;2.67;;
6638;SDS011;3355;52.882;8.430;2023-07-20T03:09:22;3.57;;;3.27;;
6638;SDS011;3355;52.882;8.430;2023-07-20T03:11:49;3.73;;;3.10;;
6638;SDS011;3355;52.882;8.430;2023-07-20T03:14:19;4.13;;;3.73;;
6638;SDS011;3355;52.882;8.430;2023-07-20T03:16:46;5.13;;;4.40;;
6638;SDS011;3355;52.882;8.430;2023-07-20T03:19:12;5.30;;;4.13;;
6638;SDS011;3355;52.882;8.430;2023-07-20T03:21:39;4.00;;;3.60;;
6638;SDS011;3355;52.882;8.430;2023-07-20T03:24:06;4.17;;;3.40;;
6638;SDS011;3355;52.882;8.430;2023-07-20T03:26:33;4.10;;;3.70;;
6638;SDS011;3355;52.882;8.430;2023-07-20T03:29:00;4.60;;;4.20;;
6638;SDS011;3355;52.882;8.430;2023-07-20T03:31:28;4.60;;;3.50;;
6638;SDS011;3355;52.882;8.430;2023-07-20T03:33:55;5.57;;;4.63;;
6638;SDS011;3355;52.882;8.430;2023-07-20T03:36:23;4.30;;;3.93;;
6638;SDS011;3355;52.882;8.430;2023-07-20T03:38:50;4.50;;;3.93;;
6638;SDS011;3355;52.882;8.430;2023-07-20T03:41:17;4.50;;;3.90;;
6638;SDS011;3355;52.882;8.430;2023-07-20T03:43:45;4.40;;;4.00;;
6638;SDS011;3355;52.882;8.430;2023-07-20T03:46:11;4.10;;;3.27;;
6638;SDS011;3355;52.882;8.430;2023-07-20T03:48:39;4.03;;;3.43;;
6638;SDS011;3355;52.882;8.430;2023-07-20T03:51:06;4.90;;;3.53;;
6638;SDS011;3355;52.882;8.430;2023-07-20T03:53:33;4.00;;;3.33;;
6638;SDS011;3355;52.882;8.430;2023-07-20T03:56:00;3.87;;;3.47;;
6638;SDS011;3355;52.882;8.430;2023-07-20T03:58:26;5.30;;;3.73;;
6638;SDS011;3355;52.882;8.430;2023-07-20T04:00:54;4.00;;;2.90;;
6638;SDS011;3355;52.882;8.430;2023-07-20T04:03:21;5.00;;;3.10;;
6638;SDS011;3355;52.882;8.430;2023-07-20T04:05:51;3.87;;;2.70;;
6638;SDS011;3355;52.882;8.430;2023-07-20T04:08:19;2.67;;;2.40;;
6638;SDS011;3355;52.882;8.430;2023-07-20T04:10:47;3.37;;;2.83;;
6638;SDS011;3355;52.882;8.430;2023-07-20T04:13:14;3.00;;;2.23;;
6638;SDS011;3355;52.882;8.430;2023-07-20T04:15:41;2.60;;;2.17;;
6638;SDS011;3355;52.882;8.430;2023-07-20T04:18:08;2.40;;;2.10;;
6638;SDS011;3355;52.882;8.430;2023-07-20T04:20:35;2.93;;;2.40;;
6638;SDS011;3355;52.882;8.430;2023-07-20T04:23:03;3.03;;;2.53;;
6638;SDS011;3355;52.882;8.430;2023-07-20T04:25:30;2.90;;;2.37;;
6638;SDS011;3355;52.882;8.430;2023-07-20T04:28:04;3.70;;;2.50;;
6638;SDS011;3355;52.882;8.430;2023-07-20T04:30:33;5.43;;;3.23;;
6638;SDS011;3355;52.882;8.430;2023-07-20T04:33:02;3.90;;;2.50;;
6638;SDS011;3355;52.882;8.430;2023-07-20T04:35:45;2.97;;;2.30;;
6638;SDS011;3355;52.882;8.430;2023-07-20T04:38:16;5.33;;;2.97;;
6638;SDS011;3355;52.882;8.430;2023-07-20T04:40:44;3.63;;;2.40;;
6638;SDS011;3355;52.882;8.430;2023-07-20T04:43:11;4.40;;;2.43;;
6638;SDS011;3355;52.882;8.430;2023-07-20T04:45:38;3.17;;;2.37;;
6638;SDS011;3355;52.882;8.430;2023-07-20T04:48:06;2.63;;;2.20;;
6638;SDS011;3355;52.882;8.430;2023-07-20T04:50:36;3.40;;;2.33;;
6638;SDS011;3355;52.882;8.430;2023-07-20T04:53:04;4.40;;;2.73;;
6638;SDS011;3355;52.882;8.430;2023-07-20T04:55:32;4.10;;;2.47;;
6638;SDS011;3355;52.882;8.430;2023-07-20T04:58:00;3.70;;;3.20;;
6638;SDS011;3355;52.882;8.430;2023-07-20T05:00:26;3.50;;;3.20;;
6638;SDS011;3355;52.882;8.430;2023-07-20T05:02:54;4.17;;;3.23;;
6638;SDS011;3355;52.882;8.430;2023-07-20T05:05:20;3.93;;;3.40;;
6638;SDS011;3355;52.882;8.430;2023-07-20T05:07:47;3.70;;;3.20;;
6638;SDS011;3355;52.882;8.430;2023-07-20T05:10:14;3.30;;;3.00;;
6638;SDS011;3355;52.882;8.430;2023-07-20T05:12:43;3.60;;;3.30;;
6638;SDS011;3355;52.882;8.430;2023-07-20T05:15:10;4.00;;;3.60;;
6638;SDS011;3355;52.882;8.430;2023-07-20T05:17:37;3.87;;;3.50;;
6638;SDS011;3355;52.882;8.430;2023-07-20T05:20:05;3.47;;;3.17;;
6638;SDS011;3355;52.882;8.430;2023-07-20T05:22:35;4.27;;;3.73;;
6638;SDS011;3355;52.882;8.430;2023-07-20T05:25:02;3.80;;;3.40;;
6638;SDS011;3355;52.882;8.430;2023-07-20T05:27:29;5.60;;;4.10;;
6638;SDS011;3355;52.882;8.430;2023-07-20T05:29:57;3.27;;;2.97;;
6638;SDS011;3355;52.882;8.430;2023-07-20T05:32:23;4.50;;;3.63;;
6638;SDS011;3355;52.882;8.430;2023-07-20T05:34:51;4.20;;;3.00;;
6638;SDS011;3355;52.882;8.430;2023-07-20T05:37:19;3.57;;;3.23;;
6638;SDS011;3355;52.882;8.430;2023-07-20T05:39:46;3.63;;;3.23;;
6638;SDS011;3355;52.882;8.430;2023-07-20T05:42:13;2.83;;;2.53;;
6638;SDS011;3355;52.882;8.430;2023-07-20T05:44:40;3.10;;;2.60;;
6638;SDS011;3355;52.882;8.430;2023-07-20T05:47:08;3.60;;;2.53;;
6638;SDS011;3355;52.882;8.430;2023-07-20T05:49:35;2.70;;;2.30;;
6638;SDS011;3355;52.882;8.430;2023-07-20T05:52:02;3.00;;;2.70;;
6638;SDS011;3355;52.882;8.430;2023-07-20T05:54:29;5.50;;;2.40;;
6638;SDS011;3355;52.882;8.430;2023-07-20T05:56:55;2.90;;;2.30;;
6638;SDS011;3355;52.882;8.430;2023-07-20T05:59:24;5.40;;;2.47;;
6638;SDS011;3355;52.882;8.430;2023-07-20T06:01:50;2.67;;;2.30;;
6638;SDS011;3355;52.882;8.430;2023-07-20T06:04:19;3.77;;;2.70;;
6638;SDS011;3355;52.882;8.430;2023-07-20T06:06:46;3.17;;;2.63;;
6638;SDS011;3355;52.882;8.430;2023-07-20T06:09:13;2.80;;;2.17;;
6638;SDS011;3355;52.882;8.430;2023-07-20T06:11:39;1.70;;;1.43;;
6638;SDS011;3355;52.882;8.430;2023-07-20T06:14:06;2.63;;;1.50;;
6638;SDS011;3355;52.882;8.430;2023-07-20T06:16:33;2.07;;;1.20;;
6638;SDS011;3355;52.882;8.430;2023-07-20T06:19:00;2.83;;;1.57;;
6638;SDS011;3355;52.882;8.430;2023-07-20T06:21:28;2.50;;;1.50;;
6638;SDS011;3355;52.882;8.430;2023-07-20T06:23:55;2.13;;;1.47;;
6638;SDS011;3355;52.882;8.430;2023-07-20T06:26:22;1.97;;;1.30;;
6638;SDS011;3355;52.882;8.430;2023-07-20T06:28:49;2.80;;;1.63;;
6638;SDS011;3355;52.882;8.430;2023-07-20T06:31:16;2.13;;;1.60;;
6638;SDS011;3355;52.882;8.430;2023-07-20T06:33:43;1.70;;;1.20;;
6638;SDS011;3355;52.882;8.430;2023-07-20T06:36:09;3.60;;;1.10;;
6638;SDS011;3355;52.882;8.430;2023-07-20T06:38:38;2.83;;;1.30;;
6638;SDS011;3355;52.882;8.430;2023-07-20T06:41:05;1.50;;;1.00;;
6638;SDS011;3355;52.882;8.430;2023-07-20T06:43:32;1.93;;;1.10;;
6638;SDS011;3355;52.882;8.430;2023-07-20T06:45:58;1.30;;;0.80;;
6638;SDS011;3355;52.882;8.430;2023-07-20T06:48:25;1.43;;;1.00;;
6638;SDS011;3355;52.882;8.430;2023-07-20T06:50:51;2.30;;;1.20;;
6638;SDS011;3355;52.882;8.430;2023-07-20T06:53:18;2.50;;;1.03;;
6638;SDS011;3355;52.882;8.430;2023-07-20T06:55:47;1.77;;;0.83;;
6638;SDS011;3355;52.882;8.430;2023-07-20T06:58:14;1.80;;;1.10;;
6638;SDS011;3355;52.882;8.430;2023-07-20T07:00:40;2.63;;;0.97;;
6638;SDS011;3355;52.882;8.430;2023-07-20T07:03:07;1.37;;;0.80;;
6638;SDS011;3355;52.882;8.430;2023-07-20T07:05:35;1.43;;;1.10;;
6638;SDS011;3355;52.882;8.430;2023-07-20T07:08:03;2.10;;;1.00;;
6638;SDS011;3355;52.882;8.430;2023-07-20T07:10:30;1.40;;;1.10;;
6638;SDS011;3355;52.882;8.430;2023-07-20T07:12:58;1.40;;;0.90;;
6638;SDS011;3355;52.882;8.430;2023-07-20T07:15:25;1.70;;;0.90;;
6638;SDS011;3355;52.882;8.430;2023-07-20T07:17:52;1.70;;;1.07;;
6638;SDS011;3355;52.882;8.430;2023-07-20T07:20:20;2.37;;;1.00;;
6638;SDS011;3355;52.882;8.430;2023-07-20T07:22:47;1.63;;;1.00;;
6638;SDS011;3355;52.882;8.430;2023-07-20T07:25:14;1.47;;;0.70;;
6638;SDS011;3355;52.882;8.430;2023-07-20T07:27:41;3.20;;;1.17;;
6638;SDS011;3355;52.882;8.430;2023-07-20T07:30:10;1.77;;;1.03;;
6638;SDS011;3355;52.882;8.430;2023-07-20T07:32:40;1.57;;;0.90;;
6638;SDS011;3355;52.882;8.430;2023-07-20T07:35:07;1.30;;;0.90;;
6638;SDS011;3355;52.882;8.430;2023-07-20T07:37:34;2.27;;;1.00;;
6638;SDS011;3355;52.882;8.430;2023-07-20T07:40:01;4.03;;;1.60;;
6638;SDS011;3355;52.882;8.430;2023-07-20T07:42:30;1.60;;;1.30;;
6638;SDS011;3355;52.882;8.430;2023-07-20T07:44:57;1.67;;;1.27;;
6638;SDS011;3355;52.882;8.430;2023-07-20T07:47:25;3.30;;;1.63;;
6638;SDS011;3355;52.882;8.430;2023-07-20T07:49:52;2.33;;;1.00;;
6638;SDS011;3355;52.882;8.430;2023-07-20T07:52:19;2.10;;;1.10;;
6638;SDS011;3355;52.882;8.430;2023-07-20T07:54:46;1.67;;;1.20;;
6638;SDS011;3355;52.882;8.430;2023-07-20T07:57:13;1.60;;;1.20;;
6638;SDS011;3355;52.882;8.430;2023-07-20T07:59:40;2.77;;;1.20;;
6638;SDS011;3355;52.882;8.430;2023-07-20T08:02:07;3.00;;;1.60;;
6638;SDS011;3355;52.882;8.430;2023-07-20T08:04:35;2.03;;;1.27;;
6638;SDS011;3355;52.882;8.430;2023-07-20T08:07:03;3.10;;;1.70;;
6638;SDS011;3355;52.882;8.430;2023-07-20T08:09:30;2.30;;;1.67;;
6638;SDS011;3355;52.882;8.430;2023-07-20T08:11:57;2.70;;;1.40;;
6638;SDS011;3355;52.882;8.430;2023-07-20T08:14:24;5.00;;;1.87;;
6638;SDS011;3355;52.882;8.430;2023-07-20T08:16:51;2.30;;;1.43;;
6638;SDS011;3355;52.882;8.430;2023-07-20T08:19:19;2.57;;;1.50;;
6638;SDS011;3355;52.882;8.430;2023-07-20T08:21:47;1.80;;;1.70;;
6638;SDS011;3355;52.882;8.430;2023-07-20T08:24:14;1.83;;;1.37;;
6638;SDS011;3355;52.882;8.430;2023-07-20T08:26:41;1.53;;;1.23;;
6638;SDS011;3355;52.882;8.430;2023-07-20T08:29:08;2.90;;;1.53;;
6638;SDS011;3355;52.882;8.430;2023-07-20T08:31:35;1.80;;;1.10;;
6638;SDS011;3355;52.882;8.430;2023-07-20T08:34:01;2.33;;;1.10;;
6638;SDS011;3355;52.882;8.430;2023-07-20T08:36:28;2.20;;;1.10;;
6638;SDS011;3355;52.882;8.430;2023-07-20T08:38:57;1.70;;;1.10;;
6638;SDS011;3355;52.882;8.430;2023-07-20T08:41:25;4.30;;;1.23;;
6638;SDS011;3355;52.882;8.430;2023-07-20T08:43:52;1.70;;;0.80;;
6638;SDS011;3355;52.882;8.430;2023-07-20T08:46:21;3.97;;;2.20;;
6638;SDS011;3355;52.882;8.430;2023-07-20T08:48:48;2.50;;;1.10;;
6638;SDS011;3355;52.882;8.430;2023-07-20T08:51:15;1.70;;;0.90;;
6638;SDS011;3355;52.882;8.430;2023-07-20T08:53:42;2.20;;;1.03;;
6638;SDS011;3355;52.882;8.430;2023-07-20T08:56:13;1.60;;;1.23;;
6638;SDS011;3355;52.882;8.430;2023-07-20T08:58:42;1.90;;;0.97;;
6638;SDS011;3355;52.882;8.430;2023-07-20T09:01:10;1.77;;;1.20;;
6638;SDS011;3355;52.882;8.430;2023-07-20T09:03:37;1.50;;;0.93;;
6638;SDS011;3355;52.882;8.430;2023-07-20T09:06:04;2.73;;;1.13;;
6638;SDS011;3355;52.882;8.430;2023-07-20T09:08:31;2.23;;;1.00;;
6638;SDS011;3355;52.882;8.430;2023-07-20T09:10:58;2.07;;;1.30;;
6638;SDS011;3355;52.882;8.430;2023-07-20T09:13:28;1.50;;;1.10;;
6638;SDS011;3355;52.882;8.430;2023-07-20T09:15:54;3.00;;;1.00;;
6638;SDS011;3355;52.882;8.430;2023-07-20T09:18:24;2.07;;;1.03;;
6638;SDS011;3355;52.882;8.430;2023-07-20T09:20:52;2.50;;;1.20;;
6638;SDS011;3355;52.882;8.430;2023-07-20T09:23:19;2.50;;;1.57;;
6638;SDS011;3355;52.882;8.430;2023-07-20T09:25:46;2.43;;;1.00;;
6638;SDS011;3355;52.882;8.430;2023-07-20T09:28:16;1.87;;;1.50;;
6638;SDS011;3355;52.882;8.430;2023-07-20T09:30:44;2.43;;;1.10;;
6638;SDS011;3355;52.882;8.430;2023-07-20T09:33:18;2.13;;;1.50;;
6638;SDS011;3355;52.882;8.430;2023-07-20T09:35:45;5.20;;;1.43;;
6638;SDS011;3355;52.882;8.430;2023-07-20T09:38:12;2.30;;;1.40;;
6638;SDS011;3355;52.882;8.430;2023-07-20T09:40:41;2.23;;;1.27;;
6638;SDS011;3355;52.882;8.430;2023-07-20T09:43:08;2.83;;;1.63;;
6638;SDS011;3355;52.882;8.430;2023-07-20T09:45:34;3.80;;;1.20;;
6638;SDS011;3355;52.882;8.430;2023-07-20T09:48:07;2.23;;;1.10;;
6638;SDS011;3355;52.882;8.430;2023-07-20T09:50:34;2.60;;;1.30;;
6638;SDS011;3355;52.882;8.430;2023-07-20T09:53:06;2.20;;;1.83;;
6638;SDS011;3355;52.882;8.430;2023-07-20T09:55:33;2.93;;;1.57;;
6638;SDS011;3355;52.882;8.430;2023-07-20T09:58:00;2.13;;;1.43;;
6638;SDS011;3355;52.882;8.430;2023-07-20T10:00:28;2.43;;;1.50;;
6638;SDS011;3355;52.882;8.430;2023-07-20T10:02:54;1.40;;;1.20;;
6638;SDS011;3355;52.882;8.430;2023-07-20T10:05:24;3.10;;;1.87;;
6638;SDS011;3355;52.882;8.430;2023-07-20T10:07:51;1.77;;;1.20;;
6638;SDS011;3355;52.882;8.430;2023-07-20T10:10:18;2.10;;;1.50;;
6638;SDS011;3355;52.882;8.430;2023-07-20T10:12:47;2.47;;;1.30;;
6638;SDS011;3355;52.882;8.430;2023-07-20T10:15:15;1.80;;;1.37;;
6638;SDS011;3355;52.882;8.430;2023-07-20T10:17:48;1.60;;;1.27;;
6638;SDS011;3355;52.882;8.430;2023-07-20T10:20:19;2.73;;;1.50;;
6638;SDS011;3355;52.882;8.430;2023-07-20T10:22:49;2.73;;;1.83;;
6638;SDS011;3355;52.882;8.430;2023-07-20T10:25:20;1.90;;;1.50;;
6638;SDS011;3355;52.882;8.430;2023-07-20T10:27:47;2.80;;;1.57;;
6638;SDS011;3355;52.882;8.430;2023-07-20T10:30:14;3.10;;;1.50;;
6638;SDS011;3355;52.882;8.430;2023-07-20T10:32:41;1.70;;;1.30;;
6638;SDS011;3355;52.882;8.430;2023-07-20T10:35:12;2.97;;;1.67;;
6638;SDS011;3355;52.882;8.430;2023-07-20T10:37:46;1.63;;;1.30;;
6638;SDS011;3355;52.882;8.430;2023-07-20T10:43:06;1.50;;;1.03;;
6638;SDS011;3355;52.882;8.430;2023-07-20T10:45:39;1.80;;;1.40;;
6638;SDS011;3355;52.882;8.430;2023-07-20T10:48:13;1.73;;;1.20;;
6638;SDS011;3355;52.882;8.430;2023-07-20T10:50:41;2.73;;;1.33;;
6638;SDS011;3355;52.882;8.430;2023-07-20T10:53:17;3.43;;;1.80;;
6638;SDS011;3355;52.882;8.430;2023-07-20T10:55:45;2.70;;;1.63;;
6638;SDS011;3355;52.882;8.430;2023-07-20T10:58:15;2.43;;;1.40;;
6638;SDS011;3355;52.882;8.430;2023-07-20T11:00:57;3.50;;;1.67;;
6638;SDS011;3355;52.882;8.430;2023-07-20T11:03:32;2.37;;;1.63;;
6638;SDS011;3355;52.882;8.430;2023-07-20T11:09:07;2.23;;;1.97;;
6638;SDS011;3355;52.882;8.430;2023-07-20T11:11:36;2.47;;;1.47;;
6638;SDS011;3355;52.882;8.430;2023-07-20T11:14:04;2.20;;;1.63;;
6638;SDS011;3355;52.882;8.430;2023-07-20T11:16:33;3.30;;;2.20;;
6638;SDS011;3355;52.882;8.430;2023-07-20T11:19:02;2.10;;;1.80;;
6638;SDS011;3355;52.882;8.430;2023-07-20T11:21:35;3.10;;;2.27;;
6638;SDS011;3355;52.882;8.430;2023-07-20T11:24:03;2.33;;;1.60;;
6638;SDS011;3355;52.882;8.430;2023-07-20T11:26:40;4.87;;;2.17;;
6638;SDS011;3355;52.882;8.430;2023-07-20T11:29:08;2.17;;;1.73;;
6638;SDS011;3355;52.882;8.430;2023-07-20T11:31:35;2.70;;;1.80;;
6638;SDS011;3355;52.882;8.430;2023-07-20T11:34:02;3.80;;;2.10;;
6638;SDS011;3355;52.882;8.430;2023-07-20T11:36:29;4.70;;;1.47;;
6638;SDS011;3355;52.882;8.430;2023-07-20T11:38:56;2.93;;;1.67;;
6638;SDS011;3355;52.882;8.430;2023-07-20T11:41:24;2.23;;;1.60;;
6638;SDS011;3355;52.882;8.430;2023-07-20T11:43:52;6.80;;;1.37;;
6638;SDS011;3355;52.882;8.430;2023-07-20T11:46:20;2.00;;;1.53;;
6638;SDS011;3355;52.882;8.430;2023-07-20T11:48:47;2.30;;;1.20;;
6638;SDS011;3355;52.882;8.430;2023-07-20T11:51:14;3.53;;;2.17;;
6638;SDS011;3355;52.882;8.430;2023-07-20T11:53:42;1.93;;;1.53;;
6638;SDS011;3355;52.882;8.430;2023-07-20T11:56:09;1.93;;;1.53;;
6638;SDS011;3355;52.882;8.430;2023-07-20T11:58:41;2.70;;;1.60;;
6638;SDS011;3355;52.882;8.430;2023-07-20T12:01:11;3.90;;;2.03;;
6638;SDS011;3355;52.882;8.430;2023-07-20T12:03:38;2.50;;;1.33;;
6638;SDS011;3355;52.882;8.430;2023-07-20T12:06:08;2.37;;;1.20;;
6638;SDS011;3355;52.882;8.430;2023-07-20T12:08:37;4.10;;;1.40;;
6638;SDS011;3355;52.882;8.430;2023-07-20T12:11:06;3.17;;;1.60;;
6638;SDS011;3355;52.882;8.430;2023-07-20T12:13:36;2.10;;;1.50;;
6638;SDS011;3355;52.882;8.430;2023-07-20T12:16:10;2.20;;;1.37;;
6638;SDS011;3355;52.882;8.430;2023-07-20T12:18:38;2.50;;;1.37;;
6638;SDS011;3355;52.882;8.430;2023-07-20T12:21:05;3.83;;;1.50;;
6638;SDS011;3355;52.882;8.430;2023-07-20T12:23:37;3.13;;;1.93;;
6638;SDS011;3355;52.882;8.430;2023-07-20T12:26:06;2.10;;;1.30;;
6638;SDS011;3355;52.882;8.430;2023-07-20T12:28:35;1.30;;;0.90;;
6638;SDS011;3355;52.882;8.430;2023-07-20T12:31:02;1.70;;;1.30;;
6638;SDS011;3355;52.882;8.430;2023-07-20T12:33:30;1.90;;;1.10;;
6638;SDS011;3355;52.882;8.430;2023-07-20T12:35:57;1.50;;;1.10;;
6638;SDS011;3355;52.882;8.430;2023-07-20T12:38:24;1.73;;;1.37;;
6638;SDS011;3355;52.882;8.430;2023-07-20T12:40:52;2.70;;;1.73;;
6638;SDS011;3355;52.882;8.430;2023-07-20T12:43:20;5.00;;;2.10;;
6638;SDS011;3355;52.882;8.430;2023-07-20T12:45:46;2.80;;;2.13;;
6638;SDS011;3355;52.882;8.430;2023-07-20T12:48:13;3.00;;;2.10;;
6638;SDS011;3355;52.882;8.430;2023-07-20T12:50:43;1.73;;;1.40;;
6638;SDS011;3355;52.882;8.430;2023-07-20T12:53:10;1.80;;;1.33;;
6638;SDS011;3355;52.882;8.430;2023-07-20T12:55:37;1.47;;;1.10;;
6638;SDS011;3355;52.882;8.430;2023-07-20T12:58:04;1.63;;;0.93;;
6638;SDS011;3355;52.882;8.430;2023-07-20T13:00:30;1.67;;;0.90;;
6638;SDS011;3355;52.882;8.430;2023-07-20T13:02:57;1.63;;;1.00;;
6638;SDS011;3355;52.882;8.430;2023-07-20T13:05:24;1.93;;;1.27;;
6638;SDS011;3355;52.882;8.430;2023-07-20T13:07:52;1.83;;;0.97;;
6638;SDS011;3355;52.882;8.430;2023-07-20T13:10:19;2.27;;;1.00;;
6638;SDS011;3355;52.882;8.430;2023-07-20T13:12:46;3.70;;;1.10;;
6638;SDS011;3355;52.882;8.430;2023-07-20T13:15:12;1.97;;;0.80;;
6638;SDS011;3355;52.882;8.430;2023-07-20T13:17:42;1.80;;;1.17;;
6638;SDS011;3355;52.882;8.430;2023-07-20T13:20:09;3.77;;;0.93;;
6638;SDS011;3355;52.882;8.430;2023-07-20T13:22:37;1.83;;;1.40;;
6638;SDS011;3355;52.882;8.430;2023-07-20T13:25:07;2.00;;;1.10;;
6638;SDS011;3355;52.882;8.430;2023-07-20T13:27:34;1.80;;;1.00;;
6638;SDS011;3355;52.882;8.430;2023-07-20T13:30:02;1.70;;;0.90;;
6638;SDS011;3355;52.882;8.430;2023-07-20T13:32:33;1.77;;;1.30;;
6638;SDS011;3355;52.882;8.430;2023-07-20T13:35:00;1.50;;;1.00;;
6638;SDS011;3355;52.882;8.430;2023-07-20T13:37:26;1.40;;;0.90;;
6638;SDS011;3355;52.882;8.430;2023-07-20T13:39:53;2.33;;;1.13;;
6638;SDS011;3355;52.882;8.430;2023-07-20T13:42:21;1.43;;;0.80;;
6638;SDS011;3355;52.882;8.430;2023-07-20T13:44:48;1.47;;;0.90;;
6638;SDS011;3355;52.882;8.430;2023-07-20T13:47:15;1.97;;;1.30;;
6638;SDS011;3355;52.882;8.430;2023-07-20T13:49:42;2.50;;;1.37;;
6638;SDS011;3355;52.882;8.430;2023-07-20T13:52:09;1.40;;;1.03;;
6638;SDS011;3355;52.882;8.430;2023-07-20T13:54:36;1.47;;;1.13;;
6638;SDS011;3355;52.882;8.430;2023-07-20T13:57:03;1.83;;;1.20;;
6638;SDS011;3355;52.882;8.430;2023-07-20T13:59:32;2.03;;;1.13;;
6638;SDS011;3355;52.882;8.430;2023-07-20T14:01:58;2.30;;;1.50;;
6638;SDS011;3355;52.882;8.430;2023-07-20T14:04:25;2.43;;;1.17;;
6638;SDS011;3355;52.882;8.430;2023-07-20T14:06:52;2.23;;;1.50;;
6638;SDS011;3355;52.882;8.430;2023-07-20T14:09:19;1.53;;;0.90;;
6638;SDS011;3355;52.882;8.430;2023-07-20T14:11:45;3.07;;;1.53;;
6638;SDS011;3355;52.882;8.430;2023-07-20T14:14:13;1.90;;;1.20;;
6638;SDS011;3355;52.882;8.430;2023-07-20T14:16:44;1.83;;;1.13;;
6638;SDS011;3355;52.882;8.430;2023-07-20T14:19:10;1.97;;;0.90;;
6638;SDS011;3355;52.882;8.430;2023-07-20T14:21:37;2.20;;;1.47;;
6638;SDS011;3355;52.882;8.430;2023-07-20T14:24:04;1.50;;;1.20;;
6638;SDS011;3355;52.882;8.430;2023-07-20T14:26:31;2.60;;;1.13;;
6638;SDS011;3355;52.882;8.430;2023-07-20T14:28:58;2.07;;;1.07;;
6638;SDS011;3355;52.882;8.430;2023-07-20T14:31:25;2.80;;;1.30;;
6638;SDS011;3355;52.882;8.430;2023-07-20T14:33:53;1.67;;;1.17;;
6638;SDS011;3355;52.882;8.430;2023-07-20T14:36:20;2.00;;;1.20;;
6638;SDS011;3355;52.882;8.430;2023-07-20T14:38:47;2.33;;;1.10;;
6638;SDS011;3355;52.882;8.430;2023-07-20T14:41:15;2.70;;;1.33;;
6638;SDS011;3355;52.882;8.430;2023-07-20T14:43:42;1.50;;;1.10;;
6638;SDS011;3355;52.882;8.430;2023-07-20T14:46:09;2.80;;;1.43;;
6638;SDS011;3355;52.882;8.430;2023-07-20T14:48:35;3.23;;;1.10;;
6638;SDS011;3355;52.882;8.430;2023-07-20T14:51:04;1.70;;;0.90;;
6638;SDS011;3355;52.882;8.430;2023-07-20T14:53:31;2.57;;;1.40;;
6638;SDS011;3355;52.882;8.430;2023-07-20T14:55:58;1.93;;;1.00;;
6638;SDS011;3355;52.882;8.430;2023-07-20T14:58:26;2.30;;;1.13;;
6638;SDS011;3355;52.882;8.430;2023-07-20T15:00:53;1.57;;;0.97;;
6638;SDS011;3355;52.882;8.430;2023-07-20T15:03:20;1.90;;;0.90;;
6638;SDS011;3355;52.882;8.430;2023-07-20T15:05:47;1.50;;;0.87;;
6638;SDS011;3355;52.882;8.430;2023-07-20T15:08:17;1.50;;;1.03;;
6638;SDS011;3355;52.882;8.430;2023-07-20T15:10:44;3.03;;;1.37;;
6638;SDS011;3355;52.882;8.430;2023-07-20T15:13:12;4.23;;;0.80;;
6638;SDS011;3355;52.882;8.430;2023-07-20T15:15:39;2.90;;;1.10;;
6638;SDS011;3355;52.882;8.430;2023-07-20T15:18:09;2.90;;;1.10;;
6638;SDS011;3355;52.882;8.430;2023-07-20T15:20:36;3.53;;;1.13;;
6638;SDS011;3355;52.882;8.430;2023-07-20T15:23:03;2.50;;;1.20;;
6638;SDS011;3355;52.882;8.430;2023-07-20T15:25:31;2.40;;;1.20;;